createdAt,value
2022-09-23T00:01:53.200Z,45.53
2022-09-23T00:04:18.911Z,45.44
2022-09-23T00:06:44.495Z,45.55
2022-09-23T00:09:10.033Z,45.42
2022-09-23T00:11:35.581Z,45.65
2022-09-23T00:14:01.127Z,45.31
2022-09-23T00:16:28.009Z,45.41
2022-09-23T00:18:53.641Z,45.39
2022-09-23T00:21:19.476Z,45.44
2022-09-23T00:23:45.023Z,45.53
2022-09-23T00:26:11.544Z,45.35
2022-09-23T00:28:37.567Z,45.25
2022-09-23T00:31:03.987Z,45.46
2022-09-23T00:33:29.560Z,45.64
2022-09-23T00:35:58.988Z,45.48
2022-09-23T00:38:24.533Z,45.47
2022-09-23T00:40:50.113Z,45.50
2022-09-23T00:43:16.450Z,45.47
2022-09-23T00:45:42.488Z,45.46
2022-09-23T00:48:08.303Z,45.48
2022-09-23T00:50:35.136Z,45.35
2022-09-23T00:53:00.980Z,45.42
2022-09-23T00:55:28.171Z,45.42
2022-09-23T00:57:54.097Z,45.55
2022-09-23T01:00:19.657Z,45.48
2022-09-23T01:02:45.876Z,45.59
2022-09-23T01:05:11.573Z,45.43
2022-09-23T01:07:37.119Z,45.47
2022-09-23T01:10:02.714Z,45.50
2022-09-23T01:12:36.114Z,45.77
2022-09-23T01:15:05.440Z,45.55
2022-09-23T01:17:35.259Z,45.65
2022-09-23T01:20:20.681Z,45.51
2022-09-23T01:23:06.112Z,45.61
2022-09-23T01:25:42.944Z,45.53
2022-09-23T01:28:17.083Z,45.68
2022-09-23T01:31:00.782Z,45.59
2022-09-23T01:33:30.979Z,45.56
2022-09-23T01:36:18.164Z,45.47
2022-09-23T01:39:03.641Z,45.56
2022-09-23T01:41:33.512Z,45.82
2022-09-23T01:44:17.604Z,45.61
2022-09-23T01:46:46.471Z,45.59
2022-09-23T01:49:14.651Z,45.72
2022-09-23T01:51:41.988Z,45.70
2022-09-23T01:54:09.746Z,45.53
2022-09-23T01:56:37.899Z,45.70
2022-09-23T02:01:46.807Z,45.60
2022-09-23T02:04:14.605Z,45.68
2022-09-23T02:06:41.659Z,45.66
2022-09-23T02:09:08.484Z,45.63
2022-09-23T02:11:35.488Z,45.65
2022-09-23T02:14:03.743Z,45.65
2022-09-23T02:16:31.255Z,45.75
2022-09-23T02:19:12.996Z,45.58
2022-09-23T02:21:40.296Z,45.66
2022-09-23T02:24:08.310Z,45.56
2022-09-23T02:26:34.939Z,45.59
2022-09-23T02:29:04.371Z,45.71
2022-09-23T02:31:32.837Z,45.61
2022-09-23T02:34:01.028Z,45.61
2022-09-23T02:36:30.675Z,45.70
2022-09-23T02:38:57.064Z,45.87
2022-09-23T02:41:42.488Z,45.76
2022-09-23T02:44:08.518Z,45.90
2022-09-23T02:46:34.108Z,45.84
2022-09-23T02:49:00.531Z,45.83
2022-09-23T02:51:27.947Z,45.72
2022-09-23T02:53:55.487Z,45.76
2022-09-23T02:56:21.169Z,45.72
2022-09-23T02:58:47.859Z,45.67
2022-09-23T03:01:25.449Z,45.81
2022-09-23T03:03:56.282Z,45.75
2022-09-23T03:06:26.887Z,45.79
2022-09-23T03:08:56.792Z,45.77
2022-09-23T03:11:23.873Z,45.87
2022-09-23T03:14:16.092Z,45.81
2022-09-23T03:16:43.849Z,45.83
2022-09-23T03:19:15.783Z,45.81
2022-09-23T03:21:44.351Z,45.71
2022-09-23T03:24:10.003Z,45.78
2022-09-23T03:26:35.922Z,46.04
2022-09-23T03:29:02.085Z,45.77
2022-09-23T03:31:28.871Z,45.86
2022-09-23T03:33:55.132Z,45.76
2022-09-23T03:36:41.867Z,45.90
2022-09-23T03:39:09.704Z,45.83
2022-09-23T03:41:38.003Z,46.01
2022-09-23T03:44:03.543Z,46.02
2022-09-23T03:46:29.352Z,45.78
2022-09-23T03:48:56.753Z,45.90
2022-09-23T03:51:23.028Z,45.82
2022-09-23T03:53:49.227Z,45.99
2022-09-23T03:56:14.782Z,45.81
2022-09-23T03:58:40.330Z,45.94
2022-09-23T04:01:05.968Z,45.83
2022-09-23T04:03:31.552Z,45.94
2022-09-23T04:05:57.105Z,45.88
2022-09-23T04:08:22.784Z,45.83
2022-09-23T04:10:52.897Z,45.96
2022-09-23T04:13:20.252Z,45.77
2022-09-23T04:15:48.793Z,45.80
2022-09-23T04:18:14.340Z,46.01
2022-09-23T04:20:39.881Z,46.03
2022-09-23T04:23:05.437Z,46.11
2022-09-23T04:25:31.272Z,46.03
2022-09-23T04:27:56.825Z,45.80
2022-09-23T04:30:22.366Z,46.07
2022-09-23T04:32:47.917Z,45.98
2022-09-23T04:35:13.654Z,46.04
2022-09-23T04:37:39.203Z,46.05
2022-09-23T04:40:04.982Z,45.97
2022-09-23T04:42:30.597Z,45.98
2022-09-23T04:44:57.052Z,46.13
2022-09-23T04:47:22.600Z,45.92
2022-09-23T04:49:48.159Z,46.02
2022-09-23T04:52:13.703Z,45.82
2022-09-23T04:54:40.026Z,46.55
2022-09-23T04:57:05.580Z,46.54
2022-09-23T04:59:31.125Z,45.80
2022-09-23T05:01:56.700Z,46.15
2022-09-23T05:04:22.256Z,46.01
2022-09-23T05:06:48.420Z,45.90
2022-09-23T05:09:15.475Z,46.12
2022-09-23T05:11:41.016Z,46.12
2022-09-23T05:14:06.563Z,45.48
2022-09-23T05:16:32.231Z,46.87
2022-09-23T05:18:58.598Z,47.59
2022-09-23T05:21:26.088Z,48.10
2022-09-23T05:23:54.274Z,47.86
2022-09-23T05:26:20.435Z,47.58
2022-09-23T05:28:45.972Z,47.34
2022-09-23T05:31:19.665Z,47.61
2022-09-23T05:33:47.954Z,47.51
2022-09-23T05:36:13.781Z,47.00
2022-09-23T05:38:39.521Z,46.86
2022-09-23T05:41:06.400Z,46.85
2022-09-23T05:43:31.976Z,46.71
2022-09-23T05:46:02.279Z,46.87
2022-09-23T05:48:30.772Z,46.70
2022-09-23T05:50:56.307Z,46.76
2022-09-23T05:53:22.048Z,46.78
2022-09-23T05:55:47.583Z,47.60
2022-09-23T05:58:13.256Z,47.48
2022-09-23T06:00:39.724Z,46.69
2022-09-23T06:03:05.630Z,46.59
2022-09-23T06:05:31.178Z,45.29
2022-09-23T06:07:57.564Z,45.50
2022-09-23T06:10:23.097Z,45.52
2022-09-23T06:12:49.235Z,45.58
2022-09-23T06:15:14.866Z,45.43
2022-09-23T06:17:40.418Z,45.74
2022-09-23T06:20:06.190Z,45.84
2022-09-23T06:22:32.717Z,45.84
2022-09-23T06:24:59.742Z,44.73
2022-09-23T06:27:25.287Z,45.23
2022-09-23T06:29:51.576Z,45.32
2022-09-23T06:32:17.525Z,45.15
2022-09-23T06:34:51.671Z,44.91
2022-09-23T06:37:20.490Z,44.89
2022-09-23T06:39:46.289Z,44.56
2022-09-23T06:42:12.690Z,44.70
2022-09-23T06:44:38.232Z,45.60
2022-09-23T06:47:03.832Z,45.98
2022-09-23T06:49:30.649Z,45.37
2022-09-23T06:51:56.202Z,46.09
2022-09-23T06:54:21.755Z,45.52
2022-09-23T06:56:47.305Z,44.37
2022-09-23T06:59:16.079Z,44.22
2022-09-23T07:01:42.208Z,43.38
2022-09-23T07:04:08.815Z,43.57
2022-09-23T07:06:34.475Z,43.11
2022-09-23T07:09:00.194Z,42.77
2022-09-23T07:11:26.199Z,43.01
2022-09-23T07:13:51.743Z,43.26
2022-09-23T07:16:17.426Z,43.07
2022-09-23T07:18:44.237Z,42.92
2022-09-23T07:21:14.146Z,43.10
2022-09-23T07:23:40.731Z,43.23
2022-09-23T07:26:07.196Z,43.37
2022-09-23T07:28:32.845Z,43.04
2022-09-23T07:31:02.231Z,43.59
2022-09-23T07:33:33.106Z,43.24
2022-09-23T07:35:59.217Z,43.53
2022-09-23T07:38:29.073Z,43.60
2022-09-23T07:40:59.396Z,43.70
2022-09-23T07:43:27.459Z,43.87
2022-09-23T07:45:53.672Z,43.72
2022-09-23T07:48:19.477Z,43.84
2022-09-23T07:50:45.021Z,44.12
2022-09-23T07:53:11.281Z,44.30
2022-09-23T07:55:36.826Z,43.83
2022-09-23T07:58:02.383Z,44.06
2022-09-23T08:00:27.922Z,44.38
2022-09-23T08:02:53.601Z,44.02
2022-09-23T08:05:19.159Z,43.89
2022-09-23T08:07:44.795Z,43.77
2022-09-23T08:10:10.346Z,44.22
2022-09-23T08:12:35.901Z,44.39
2022-09-23T08:15:02.206Z,44.40
2022-09-23T08:17:27.754Z,44.43
2022-09-23T08:19:53.300Z,44.45
2022-09-23T08:22:20.029Z,44.57
2022-09-23T08:24:45.586Z,44.41
2022-09-23T08:27:11.873Z,44.29
2022-09-23T08:29:37.418Z,44.47
2022-09-23T08:32:02.973Z,44.41
2022-09-23T08:34:28.522Z,44.54
2022-09-23T08:36:54.070Z,44.64
2022-09-23T08:39:19.734Z,44.33
2022-09-23T08:41:58.812Z,44.35
2022-09-23T08:44:42.661Z,44.34
2022-09-23T08:49:56.504Z,44.16
2022-09-23T08:52:26.451Z,43.73
2022-09-23T08:54:55.489Z,43.85
2022-09-23T08:57:29.521Z,43.75
2022-09-23T08:59:55.057Z,43.34
2022-09-23T09:02:21.055Z,43.99
2022-09-23T09:04:47.618Z,44.14
2022-09-23T09:10:17.818Z,43.85
2022-09-23T09:12:44.452Z,43.97
2022-09-23T09:15:26.451Z,43.95
2022-09-23T09:18:11.982Z,43.73
2022-09-23T09:20:50.891Z,44.01
2022-09-23T09:23:33.511Z,43.99
2022-09-23T09:26:00.638Z,43.76
2022-09-23T09:28:30.181Z,44.05
2022-09-23T09:30:56.672Z,44.07
2022-09-23T09:33:24.745Z,44.21
2022-09-23T09:36:00.527Z,44.22
2022-09-23T09:38:26.396Z,44.31
2022-09-23T09:40:51.983Z,44.50
2022-09-23T09:43:22.559Z,44.72
2022-09-23T09:46:08.382Z,44.64
2022-09-23T09:48:37.822Z,44.41
2022-09-23T09:51:20.631Z,44.98
2022-09-23T09:53:46.284Z,44.68
2022-09-23T09:56:12.732Z,44.70
2022-09-23T09:58:48.175Z,44.59
2022-09-23T10:01:17.784Z,43.93
2022-09-23T10:03:43.351Z,44.19
2022-09-23T10:06:13.194Z,44.06
2022-09-23T10:08:38.787Z,44.29
2022-09-23T10:11:06.121Z,44.23
2022-09-23T10:13:31.783Z,43.81
2022-09-23T10:15:57.670Z,44.35
2022-09-23T10:18:28.996Z,44.61
2022-09-23T10:21:02.092Z,44.52
2022-09-23T10:23:27.770Z,44.40
2022-09-23T10:26:01.500Z,44.52
2022-09-23T10:28:31.582Z,44.60
2022-09-23T10:31:05.373Z,44.46
2022-09-23T10:33:31.038Z,44.97
2022-09-23T10:35:56.652Z,44.61
2022-09-23T10:38:22.207Z,44.69
2022-09-23T10:46:39.368Z,44.33
2022-09-23T10:49:24.944Z,44.08
2022-09-23T10:51:56.418Z,43.58
2022-09-23T10:54:41.848Z,44.14
2022-09-23T10:57:34.985Z,43.94
2022-09-23T11:00:08.081Z,44.14
2022-09-23T11:02:42.385Z,43.57
2022-09-23T11:05:27.836Z,43.96
2022-09-23T11:07:58.730Z,43.91
2022-09-23T11:10:46.558Z,44.03
2022-09-23T11:13:17.527Z,44.72
2022-09-23T11:15:48.583Z,43.67
2022-09-23T11:18:34.006Z,43.14
2022-09-23T11:21:05.930Z,43.55
2022-09-23T11:23:36.266Z,43.55
2022-09-23T11:26:12.875Z,43.37
2022-09-23T11:28:50.146Z,43.68
2022-09-23T11:31:36.221Z,43.88
2022-09-23T11:34:21.807Z,44.37
2022-09-23T11:36:50.214Z,43.97
2022-09-23T11:39:18.474Z,43.93
2022-09-23T11:41:44.022Z,44.07
2022-09-23T11:46:57.503Z,44.43
2022-09-23T11:49:26.594Z,44.67
2022-09-23T11:52:12.165Z,44.31
2022-09-23T11:54:57.659Z,44.22
2022-09-23T11:57:36.742Z,44.37
2022-09-23T12:00:12.143Z,42.53
2022-09-23T12:05:32.623Z,43.28
2022-09-23T12:08:18.218Z,43.70
2022-09-23T12:10:51.727Z,43.47
2022-09-23T12:13:23.610Z,43.67
2022-09-23T12:16:09.155Z,43.99
2022-09-23T12:18:45.282Z,43.78
2022-09-23T12:21:33.051Z,43.61
2022-09-23T12:24:04.869Z,43.58
2022-09-23T12:26:30.429Z,43.17
2022-09-23T12:28:59.241Z,43.24
2022-09-23T12:31:29.763Z,43.06
2022-09-23T12:33:55.798Z,42.92
2022-09-23T12:36:26.106Z,42.77
2022-09-23T12:38:52.551Z,42.09
2022-09-23T12:41:38.031Z,42.47
2022-09-23T12:44:13.472Z,42.64
2022-09-23T12:46:39.494Z,42.48
2022-09-23T12:49:07.751Z,42.53
2022-09-23T12:51:34.069Z,42.46
2022-09-23T12:54:06.069Z,43.11
2022-09-23T13:01:52.681Z,42.62
2022-09-23T13:04:58.188Z,43.06
2022-09-23T13:07:25.351Z,43.31
2022-09-23T13:09:51.724Z,43.17
2022-09-23T13:12:33.860Z,43.77
2022-09-23T13:15:02.600Z,43.97
2022-09-23T13:17:36.217Z,43.70
2022-09-23T13:22:59.183Z,43.84
2022-09-23T13:25:25.693Z,43.80
2022-09-23T13:27:52.802Z,43.67
2022-09-23T13:30:23.664Z,43.91
2022-09-23T13:32:58.859Z,44.29
2022-09-23T13:35:26.373Z,43.72
2022-09-23T13:37:52.047Z,43.97
2022-09-23T13:40:22.916Z,43.74
2022-09-23T13:42:54.217Z,43.85
2022-09-23T13:45:20.435Z,43.91
2022-09-23T13:47:46.119Z,43.83
2022-09-23T13:50:16.070Z,43.89
2022-09-23T13:52:41.611Z,44.67
2022-09-23T13:55:22.465Z,44.76
2022-09-23T13:57:48.007Z,44.61
2022-09-23T14:00:17.670Z,44.77
2022-09-23T14:02:43.415Z,45.01
2022-09-23T14:05:11.642Z,45.25
2022-09-23T14:07:37.179Z,44.44
2022-09-23T14:10:04.364Z,44.75
2022-09-23T14:12:29.905Z,44.16
2022-09-23T14:14:56.338Z,44.69
2022-09-23T14:17:22.924Z,44.45
2022-09-23T14:19:48.647Z,43.82
2022-09-23T14:22:29.196Z,44.02
2022-09-23T14:24:55.108Z,44.19
2022-09-23T14:27:26.572Z,44.28
2022-09-23T14:29:52.120Z,44.14
2022-09-23T14:32:20.158Z,44.10
2022-09-23T14:34:47.482Z,44.10
2022-09-23T14:37:52.921Z,44.33
2022-09-23T14:40:19.738Z,44.11
2022-09-23T14:42:46.142Z,44.60
2022-09-23T14:45:16.022Z,44.24
2022-09-23T14:47:42.705Z,44.25
2022-09-23T14:50:33.675Z,44.23
2022-09-23T14:52:59.213Z,44.29
2022-09-23T14:55:26.737Z,44.36
2022-09-23T14:57:59.127Z,44.34
2022-09-23T15:00:24.979Z,44.42
2022-09-23T15:02:58.543Z,44.32
2022-09-23T15:05:40.324Z,44.35
2022-09-23T15:08:05.899Z,44.44
2022-09-23T15:10:32.410Z,44.29
2022-09-23T15:13:03.695Z,44.26
2022-09-23T15:15:29.251Z,44.47
2022-09-23T15:17:54.828Z,44.37
2022-09-23T15:20:22.024Z,44.41
2022-09-23T15:22:49.846Z,44.35
2022-09-23T15:25:17.579Z,44.36
2022-09-23T15:27:54.426Z,44.47
2022-09-23T15:30:20.137Z,44.40
2022-09-23T15:32:45.815Z,44.38
2022-09-23T15:35:14.814Z,44.36
2022-09-23T15:37:41.161Z,44.47
2022-09-23T15:40:11.096Z,44.46
2022-09-23T15:42:37.578Z,44.47
2022-09-23T15:45:03.377Z,44.28
2022-09-23T15:47:28.919Z,44.57
2022-09-23T15:49:54.473Z,44.49
2022-09-23T15:52:21.243Z,44.58
2022-09-23T15:54:46.789Z,44.48
2022-09-23T15:57:12.330Z,44.49
2022-09-23T15:59:37.886Z,44.58
2022-09-23T16:02:06.976Z,44.76
2022-09-23T16:04:32.559Z,44.51
2022-09-23T16:06:58.174Z,44.34
2022-09-23T16:09:23.900Z,44.40
2022-09-23T16:11:50.354Z,44.57
2022-09-23T16:14:16.305Z,44.63
2022-09-23T16:16:44.021Z,44.65
2022-09-23T16:19:10.452Z,44.56
2022-09-23T16:21:36.025Z,44.54
2022-09-23T16:24:01.609Z,44.44
2022-09-23T16:26:28.805Z,44.56
2022-09-23T16:28:54.962Z,44.54
2022-09-23T16:31:21.255Z,44.63
2022-09-23T16:33:47.489Z,44.41
2022-09-23T16:36:30.260Z,44.79
2022-09-23T16:38:56.068Z,44.62
2022-09-23T16:41:22.654Z,44.65
2022-09-23T16:43:49.602Z,44.63
2022-09-23T16:46:15.806Z,44.54
2022-09-23T16:48:41.528Z,44.67
2022-09-23T16:51:07.355Z,44.65
2022-09-23T16:53:34.059Z,44.57
2022-09-23T16:56:08.737Z,44.52
2022-09-23T16:58:35.744Z,44.75
2022-09-23T17:01:21.219Z,44.59
2022-09-23T17:03:47.001Z,44.51
2022-09-23T17:06:12.968Z,44.52
2022-09-23T17:08:39.955Z,44.63
2022-09-23T17:11:05.562Z,44.71
2022-09-23T17:13:31.624Z,44.77
2022-09-23T17:15:57.310Z,44.70
2022-09-23T17:18:22.881Z,44.66
2022-09-23T17:20:56.287Z,44.63
2022-09-23T17:23:21.830Z,44.62
2022-09-23T17:25:47.633Z,44.71
2022-09-23T17:28:13.180Z,44.59
2022-09-23T17:30:39.807Z,44.70
2022-09-23T17:33:05.429Z,44.75
2022-09-23T17:35:30.973Z,44.66
2022-09-23T17:37:56.512Z,44.58
2022-09-23T17:40:25.252Z,44.74
2022-09-23T17:42:52.414Z,44.88
2022-09-23T17:45:18.153Z,44.80
2022-09-23T17:47:50.323Z,44.76
2022-09-23T17:50:16.171Z,44.79
2022-09-23T17:52:41.718Z,44.78
2022-09-23T17:55:07.635Z,44.81
2022-09-23T17:57:33.174Z,44.68
2022-09-23T17:59:58.726Z,44.86
2022-09-23T18:02:24.302Z,44.86
2022-09-23T18:04:49.900Z,44.79
2022-09-23T18:07:15.443Z,44.73
2022-09-23T18:09:40.995Z,44.87
2022-09-23T18:12:06.534Z,44.67
2022-09-23T18:14:32.098Z,44.88
2022-09-23T18:16:57.635Z,44.77
2022-09-23T18:19:23.879Z,44.88
2022-09-23T18:21:50.264Z,44.84
2022-09-23T18:24:33.146Z,44.74
2022-09-23T18:26:59.267Z,44.88
2022-09-23T18:29:24.981Z,44.93
2022-09-23T18:31:50.651Z,44.88
2022-09-23T18:34:16.396Z,45.00
2022-09-23T18:36:42.133Z,44.86
2022-09-23T18:39:07.686Z,44.98
2022-09-23T18:41:33.361Z,44.76
2022-09-23T18:43:58.910Z,44.85
2022-09-23T18:46:25.569Z,44.89
2022-09-23T18:49:11.201Z,44.98
2022-09-23T18:51:37.790Z,44.83
2022-09-23T18:54:04.593Z,44.98
2022-09-23T18:56:36.306Z,45.02
2022-09-23T18:59:04.356Z,44.92
2022-09-23T19:01:30.014Z,44.94
2022-09-23T19:03:56.014Z,44.86
2022-09-23T19:06:21.644Z,44.91
2022-09-23T19:08:48.665Z,44.86
2022-09-23T19:11:14.937Z,44.98
2022-09-23T19:13:40.480Z,44.83
2022-09-23T19:16:09.691Z,44.88
2022-09-23T19:18:36.285Z,44.92
2022-09-23T19:21:06.297Z,44.87
2022-09-23T19:23:33.988Z,44.96
2022-09-23T19:26:07.949Z,45.05
2022-09-23T19:28:33.497Z,44.99
2022-09-23T19:31:07.843Z,44.98
2022-09-23T19:33:33.417Z,45.08
2022-09-23T19:35:58.951Z,45.13
2022-09-23T19:38:25.469Z,45.08
2022-09-23T19:40:51.294Z,45.01
2022-09-23T19:43:16.960Z,45.03
2022-09-23T19:45:43.493Z,44.98
2022-09-23T19:48:09.482Z,45.03
2022-09-23T19:50:38.475Z,44.99
2022-09-23T19:53:04.803Z,45.21
2022-09-23T19:55:32.112Z,45.05
2022-09-23T19:57:57.654Z,45.02
2022-09-23T20:00:23.250Z,44.99
2022-09-23T20:02:48.933Z,45.11
2022-09-23T20:05:18.427Z,45.06
2022-09-23T20:07:45.829Z,45.22
2022-09-23T20:10:11.769Z,45.23
2022-09-23T20:12:37.318Z,45.18
2022-09-23T20:15:04.717Z,45.22
2022-09-23T20:17:30.714Z,45.15
2022-09-23T20:19:56.383Z,44.93
2022-09-23T20:22:27.528Z,45.11
2022-09-23T20:24:56.456Z,45.08
2022-09-23T20:27:22.526Z,45.15
2022-09-23T20:29:48.101Z,45.24
2022-09-23T20:32:13.825Z,45.29
2022-09-23T20:34:43.273Z,45.06
2022-09-23T20:37:09.976Z,45.31
2022-09-23T20:39:35.541Z,45.06
2022-09-23T20:42:01.882Z,45.16
2022-09-23T20:44:27.435Z,45.19
2022-09-23T20:46:53.061Z,45.19
2022-09-23T20:49:19.905Z,45.10
2022-09-23T20:51:47.100Z,45.08
2022-09-23T20:54:12.642Z,45.13
2022-09-23T20:56:38.279Z,45.20
2022-09-23T20:59:03.824Z,45.22
2022-09-23T21:01:31.631Z,45.28
2022-09-23T21:03:57.175Z,45.30
2022-09-23T21:06:25.311Z,45.24
2022-09-23T21:08:52.473Z,45.29
2022-09-23T21:11:18.010Z,45.36
2022-09-23T21:13:46.275Z,45.22
2022-09-23T21:16:11.885Z,45.21
2022-09-23T21:18:37.743Z,45.23
2022-09-23T21:21:03.669Z,45.23
2022-09-23T21:23:29.901Z,45.26
2022-09-23T21:25:59.048Z,45.18
2022-09-23T21:28:24.598Z,45.35
2022-09-23T21:30:52.057Z,45.30
2022-09-23T21:33:17.750Z,45.39
2022-09-23T21:35:43.472Z,45.31
2022-09-23T21:38:09.013Z,45.27
2022-09-23T21:40:54.517Z,45.30
2022-09-23T21:43:20.113Z,45.45
2022-09-23T21:45:46.433Z,45.47
2022-09-23T21:48:12.014Z,45.49
2022-09-23T21:50:39.936Z,45.29
2022-09-23T21:53:06.432Z,45.30
2022-09-23T21:55:31.985Z,45.31
2022-09-23T21:57:57.651Z,45.43
2022-09-23T22:00:23.205Z,45.32
2022-09-23T22:02:48.747Z,45.42
2022-09-23T22:05:14.295Z,45.34
2022-09-23T22:07:39.838Z,45.29
2022-09-23T22:10:05.655Z,45.44
2022-09-23T22:12:31.496Z,45.52
2022-09-23T22:14:57.052Z,45.46
2022-09-23T22:17:22.881Z,45.62
2022-09-23T22:19:48.463Z,45.35
2022-09-23T22:22:14.940Z,45.47
2022-09-23T22:24:40.790Z,45.50
2022-09-23T22:27:06.714Z,45.47
2022-09-23T22:29:52.163Z,45.53
2022-09-23T22:32:37.679Z,45.45
2022-09-23T22:35:03.424Z,45.49
2022-09-23T22:37:29.626Z,45.43
2022-09-23T22:39:55.180Z,45.36
2022-09-23T22:42:21.419Z,45.53
2022-09-23T22:44:47.232Z,45.41
2022-09-23T22:47:12.781Z,45.50
2022-09-23T22:49:38.336Z,45.43
2022-09-23T22:52:08.273Z,45.38
2022-09-23T22:54:34.376Z,45.58
2022-09-23T22:57:02.304Z,45.43
2022-09-23T22:59:27.856Z,45.46
2022-09-23T23:01:53.557Z,45.46
2022-09-23T23:04:19.174Z,45.59
2022-09-23T23:06:44.859Z,45.51
2022-09-23T23:09:14.772Z,45.62
2022-09-23T23:11:41.333Z,45.58
2022-09-23T23:14:07.535Z,45.46
2022-09-23T23:16:34.728Z,45.46
2022-09-23T23:19:03.387Z,45.70
2022-09-23T23:21:28.955Z,45.57
2022-09-23T23:23:54.503Z,45.52
2022-09-23T23:26:21.320Z,45.50
2022-09-23T23:28:47.070Z,45.52
2022-09-23T23:31:13.311Z,45.56
2022-09-23T23:33:38.942Z,45.44
2022-09-23T23:36:04.855Z,45.42
2022-09-23T23:38:30.393Z,45.60
2022-09-23T23:40:55.993Z,45.62
2022-09-23T23:43:22.526Z,45.62
2022-09-23T23:45:50.687Z,45.59
2022-09-23T23:48:17.367Z,45.65
2022-09-23T23:50:43.638Z,45.73
2022-09-23T23:53:11.068Z,45.67
2022-09-23T23:55:37.145Z,45.69
2022-09-23T23:58:02.864Z,45.67
